Time;durP1;ratioP1;P1;durP2;ratioP2;P2;SDS_P1;SDS_P2;PMS_P1;PMS_P2;Temp;Humidity;BMP_temperature;BMP_pressure;BME280_temperature;BME280_humidity;BME280_pressure;Samples;Min_cycle;Max_cycle;Signal;HPM_P1;HPM_P2
2022/05/21 00:01:12;;;;;;;13.88;5.10;;;10.70;99.90;;;;;;4977177;28;20171;-83
2022/05/21 00:03:41;;;;;;;10.48;4.45;;;10.70;99.90;;;;;;4976026;28;20078;-80
2022/05/21 00:06:07;;;;;;;11.70;4.85;;;10.70;99.90;;;;;;4981794;28;20050;-80
2022/05/21 00:08:33;;;;;;;9.38;4.00;;;10.70;99.90;;;;;;4962804;28;20062;-87
2022/05/21 00:10:59;;;;;;;13.45;5.07;;;10.70;99.90;;;;;;4977823;28;20043;-80
2022/05/21 00:13:25;;;;;;;12.02;4.75;;;10.70;99.90;;;;;;4974188;28;20074;-81
2022/05/21 00:15:50;;;;;;;12.45;5.53;;;10.70;99.90;;;;;;4972944;28;20487;-80
2022/05/21 00:18:19;;;;;;;7.78;4.57;;;10.70;99.90;;;;;;4956726;28;20517;-84
2022/05/21 00:20:48;;;;;;;14.05;5.68;;;10.70;99.90;;;;;;4977085;28;20138;-83
2022/05/21 00:23:25;;;;;;;13.93;5.03;;;10.70;99.90;;;;;;4944456;28;20093;-84
2022/05/21 00:26:02;;;;;;;12.13;5.13;;;10.70;99.90;;;;;;4974311;28;20057;-86
2022/05/21 00:28:28;;;;;;;13.25;6.45;;;10.80;99.90;;;;;;4958308;28;20582;-90
2022/05/21 00:30:54;;;;;;;18.58;6.70;;;10.80;99.90;;;;;;4974079;28;20054;-82
2022/05/21 00:33:21;;;;;;;16.58;7.25;;;10.90;99.90;;;;;;4956763;28;20070;-82
2022/05/21 00:35:48;;;;;;;15.65;7.63;;;10.90;99.90;;;;;;4942335;28;20055;-84
2022/05/21 00:38:14;;;;;;;13.25;8.13;;;11.00;99.90;;;;;;4959088;28;20047;-81
2022/05/21 00:40:41;;;;;;;19.00;8.60;;;11.00;99.90;;;;;;4975441;28;20092;-80
2022/05/21 00:43:41;;;;;;;21.75;8.40;;;11.10;99.90;;;;;;4960279;28;20051;-82
2022/05/21 00:46:11;;;;;;;17.50;8.95;;;11.20;99.90;;;;;;4960083;28;20082;-81
2022/05/21 00:48:38;;;;;;;19.13;10.50;;;11.20;99.90;;;;;;4972080;28;20054;-81
2022/05/21 00:51:08;;;;;;;22.10;11.40;;;11.30;99.90;;;;;;4971972;28;20799;-82
2022/05/21 00:53:34;;;;;;;21.30;11.45;;;11.30;99.90;;;;;;4971958;28;20061;-83
2022/05/21 00:56:00;;;;;;;25.85;12.88;;;11.40;99.90;;;;;;4972481;28;20089;-82
2022/05/21 01:01:15;;;;;;;24.60;12.48;;;11.40;99.90;;;;;;4976621;28;20054;-81
2022/05/21 01:03:43;;;;;;;24.60;13.45;;;11.40;99.90;;;;;;4971904;28;20410;-80
2022/05/21 01:06:10;;;;;;;32.60;14.45;;;11.50;99.90;;;;;;4975494;28;20054;-81
2022/05/21 01:08:39;;;;;;;24.35;13.85;;;11.50;99.90;;;;;;4957496;28;20149;-82
2022/05/21 01:11:16;;;;;;;29.23;15.65;;;11.60;99.90;;;;;;4955467;28;20138;-82
2022/05/21 01:13:45;;;;;;;28.20;14.52;;;11.70;99.90;;;;;;4958034;28;20105;-86
2022/05/21 01:16:13;;;;;;;31.50;15.07;;;11.70;99.90;;;;;;4979736;28;20054;-80
2022/05/21 01:18:39;;;;;;;32.70;16.40;;;11.70;99.90;;;;;;4978058;28;20511;-82
2022/05/21 01:21:05;;;;;;;36.65;17.60;;;11.80;99.90;;;;;;4975113;28;20117;-82
2022/05/21 01:23:32;;;;;;;29.65;16.67;;;11.80;99.90;;;;;;4973891;28;20507;-89
2022/05/21 01:26:00;;;;;;;31.17;16.42;;;11.90;99.90;;;;;;4978319;28;20051;-81
2022/05/21 01:28:30;;;;;;;32.88;19.15;;;11.90;99.90;;;;;;4980819;28;20065;-84
2022/05/21 01:30:58;;;;;;;37.90;18.92;;;12.00;99.90;;;;;;4965416;28;20058;-84
2022/05/21 01:33:28;;;;;;;38.22;20.30;;;12.10;99.90;;;;;;4975119;28;20050;-80
2022/05/21 01:35:54;;;;;;;47.53;22.92;;;12.10;99.90;;;;;;4974451;28;20491;-80
2022/05/21 01:38:22;;;;;;;41.95;22.20;;;12.10;99.90;;;;;;4973743;28;20134;-81
2022/05/21 01:40:48;;;;;;;40.47;20.38;;;12.20;99.90;;;;;;4958535;28;20055;-79
2022/05/21 01:45:58;;;;;;;41.03;21.50;;;12.30;99.90;;;;;;4977172;28;20058;-79
2022/05/21 01:48:27;;;;;;;35.80;20.75;;;12.40;99.90;;;;;;4972972;28;20102;-79
2022/05/21 01:50:54;;;;;;;37.17;22.35;;;12.40;99.90;;;;;;4974608;28;20109;-82
2022/05/21 01:53:22;;;;;;;42.65;21.05;;;12.40;99.90;;;;;;4974318;28;20066;-80
2022/05/21 01:55:48;;;;;;;46.70;24.98;;;12.40;99.90;;;;;;4974892;28;20105;-79
2022/05/21 01:58:16;;;;;;;39.65;21.23;;;12.40;99.90;;;;;;4957893;28;20058;-82
2022/05/21 02:00:42;;;;;;;43.05;21.45;;;12.50;99.90;;;;;;4974089;28;20051;-81
2022/05/21 02:03:10;;;;;;;33.03;18.52;;;12.50;99.90;;;;;;4957127;28;20415;-85
2022/05/21 02:05:36;;;;;;;35.50;22.58;;;12.50;99.90;;;;;;4974128;28;20047;-82
2022/05/21 02:08:03;;;;;;;34.17;21.17;;;12.60;99.90;;;;;;4957540;28;20058;-83
2022/05/21 02:10:29;;;;;;;47.45;22.15;;;12.60;99.90;;;;;;4977390;28;20082;-83
2022/05/21 02:12:55;;;;;;;31.17;18.02;;;12.60;99.90;;;;;;4975246;28;20058;-83
2022/05/21 02:15:21;;;;;;;36.30;18.58;;;12.70;99.90;;;;;;4957196;28;20403;-80
2022/05/21 02:17:47;;;;;;;32.20;16.15;;;12.70;99.90;;;;;;4957977;28;20479;-82
2022/05/21 02:20:13;;;;;;;35.90;18.48;;;12.80;99.90;;;;;;4975722;28;20386;-87
2022/05/21 02:22:39;;;;;;;33.65;15.02;;;12.80;99.90;;;;;;4973680;28;20062;-79
2022/05/21 02:25:07;;;;;;;32.08;14.88;;;12.80;99.90;;;;;;4957118;28;20510;-85
2022/05/21 02:27:33;;;;;;;37.45;16.70;;;12.80;99.90;;;;;;4957084;28;20050;-80
2022/05/21 02:30:00;;;;;;;37.30;14.60;;;12.80;99.90;;;;;;4979737;28;20082;-79
2022/05/21 02:32:25;;;;;;;30.88;14.18;;;12.80;99.90;;;;;;4982661;28;20051;-81
2022/05/21 02:34:51;;;;;;;30.95;12.00;;;12.90;99.90;;;;;;4958900;28;20051;-81
2022/05/21 02:40:01;;;;;;;36.10;12.67;;;12.90;99.90;;;;;;4973767;28;20077;-85
2022/05/21 02:45:16;;;;;;;33.07;9.17;;;13.00;99.90;;;;;;4973379;28;20186;-80
2022/05/21 02:47:42;;;;;;;30.45;8.88;;;13.00;99.90;;;;;;4973851;28;20306;-80
2022/05/21 02:50:09;;;;;;;33.40;8.55;;;13.10;99.90;;;;;;4956053;28;20050;-84
2022/05/21 02:52:35;;;;;;;21.75;6.60;;;13.10;99.90;;;;;;4956839;28;20094;-88
2022/05/21 02:55:02;;;;;;;31.77;7.25;;;13.10;99.90;;;;;;4961153;28;20518;-84
2022/05/21 02:57:27;;;;;;;24.08;5.80;;;13.10;99.90;;;;;;4948006;28;20099;-84
2022/05/21 03:00:00;;;;;;;35.40;8.50;;;13.10;99.90;;;;;;4956926;28;20105;-85
2022/05/21 03:02:27;;;;;;;23.70;6.43;;;13.20;99.90;;;;;;4956590;28;20053;-83
2022/05/21 03:04:53;;;;;;;29.10;5.72;;;13.20;99.90;;;;;;4956864;28;20054;-88
2022/05/21 03:07:19;;;;;;;22.92;6.20;;;13.20;99.90;;;;;;4973360;28;20487;-87
2022/05/21 03:12:30;;;;;;;31.20;7.35;;;13.20;99.90;;;;;;4978380;28;20351;-81
2022/05/21 03:14:56;;;;;;;25.15;6.43;;;13.30;99.90;;;;;;4975041;28;20074;-81
2022/05/21 03:17:21;;;;;;;21.08;5.57;;;13.20;99.90;;;;;;4977830;28;20043;-90
2022/05/21 03:19:47;;;;;;;26.38;6.60;;;13.20;99.90;;;;;;4958087;28;20043;-91
2022/05/21 03:22:13;;;;;;;20.92;6.25;;;13.20;99.90;;;;;;4973599;28;20053;-86
2022/05/21 03:24:39;;;;;;;22.42;6.20;;;13.20;99.90;;;;;;4973761;28;20066;-91
2022/05/21 03:27:07;;;;;;;21.73;7.18;;;13.20;99.90;;;;;;4964916;28;20043;-82
2022/05/21 03:29:33;;;;;;;23.75;6.80;;;13.30;99.90;;;;;;4975788;28;20051;-83
2022/05/21 03:31:59;;;;;;;29.10;6.80;;;13.30;99.90;;;;;;4958789;28;20097;-83
2022/05/21 03:34:25;;;;;;;33.63;6.40;;;13.20;99.90;;;;;;4982738;28;20054;-82
2022/05/21 03:36:51;;;;;;;21.65;6.32;;;13.20;99.90;;;;;;4975257;28;20059;-83
2022/05/21 03:39:17;;;;;;;23.20;6.65;;;13.30;99.90;;;;;;4973288;28;20054;-85
2022/05/21 03:41:43;;;;;;;19.70;4.97;;;13.20;99.90;;;;;;4973455;28;20054;-82
2022/05/21 03:44:09;;;;;;;14.40;4.13;;;13.20;99.90;;;;;;4973101;28;20051;-82
2022/05/21 03:46:38;;;;;;;21.10;3.80;;;13.20;99.90;;;;;;4959902;28;20475;-82
2022/05/21 03:49:05;;;;;;;18.63;5.85;;;13.30;99.90;;;;;;4941297;28;20049;-83
2022/05/21 03:51:31;;;;;;;11.88;3.55;;;13.20;99.90;;;;;;4970893;28;20123;-83
2022/05/21 03:53:57;;;;;;;14.50;3.90;;;13.20;99.90;;;;;;4972648;28;20182;-88
2022/05/21 03:56:23;;;;;;;13.18;3.40;;;13.20;99.90;;;;;;4957997;28;20138;-85
2022/05/21 03:58:49;;;;;;;14.75;4.05;;;13.20;99.90;;;;;;4975135;28;20446;-82
2022/05/21 04:01:15;;;;;;;15.60;3.50;;;13.10;99.90;;;;;;4976317;28;20099;-87
2022/05/21 04:03:42;;;;;;;16.52;3.00;;;13.10;99.90;;;;;;4962238;28;20062;-86
2022/05/21 04:06:08;;;;;;;18.65;3.42;;;13.10;99.90;;;;;;4955856;28;20038;-83
2022/05/21 04:08:34;;;;;;;15.80;3.45;;;13.10;99.90;;;;;;4955034;28;20065;-83
2022/05/21 04:11:01;;;;;;;16.25;3.50;;;13.10;99.90;;;;;;4972471;28;20373;-85
2022/05/21 04:13:27;;;;;;;15.15;3.22;;;13.10;99.90;;;;;;4972557;28;20054;-91
2022/05/21 04:15:53;;;;;;;12.13;3.15;;;13.10;99.90;;;;;;4974643;28;20054;-83
2022/05/21 04:18:20;;;;;;;21.15;3.65;;;13.10;99.90;;;;;;4958290;28;20114;-83
2022/05/21 04:20:46;;;;;;;12.85;3.40;;;13.10;99.90;;;;;;4972495;28;20051;-85
2022/05/21 04:23:12;;;;;;;17.45;3.97;;;13.10;99.90;;;;;;4960504;28;20566;-82
2022/05/21 04:25:38;;;;;;;11.45;2.65;;;13.10;99.90;;;;;;4957461;28;20047;-91
2022/05/21 04:28:04;;;;;;;16.75;3.50;;;13.20;99.90;;;;;;4955202;28;20158;-84
2022/05/21 04:30:31;;;;;;;22.45;4.75;;;13.20;99.90;;;;;;4972333;28;20426;-84
2022/05/21 04:32:58;;;;;;;16.63;3.95;;;13.20;99.90;;;;;;4954941;28;20061;-83
2022/05/21 04:36:17;;;;;;;14.98;3.28;;;13.20;99.90;;;;;;4939507;28;20077;-84
2022/05/21 04:38:12;;;;;;;15.60;4.03;;;13.30;99.90;;;;;;4975310;28;20131;-82
2022/05/21 04:40:38;;;;;;;14.05;2.78;;;13.30;99.90;;;;;;4974370;28;20050;-83
2022/05/21 04:43:04;;;;;;;20.42;4.20;;;13.20;99.90;;;;;;4976562;28;20051;-82
2022/05/21 04:45:30;;;;;;;17.15;3.55;;;13.30;99.90;;;;;;4956116;28;20215;-87
2022/05/21 04:47:56;;;;;;;20.85;5.30;;;13.30;99.90;;;;;;4973432;28;20521;-86
2022/05/21 04:50:21;;;;;;;20.23;3.85;;;13.30;99.90;;;;;;4972209;28;20057;-83
2022/05/21 04:52:47;;;;;;;15.00;2.97;;;13.40;99.90;;;;;;4975488;28;20065;-88
2022/05/21 04:55:13;;;;;;;15.73;3.15;;;13.40;99.90;;;;;;4976387;28;20053;-86
2022/05/21 04:57:39;;;;;;;13.98;2.95;;;13.40;99.90;;;;;;4960987;28;20078;-87
2022/05/21 05:00:06;;;;;;;12.65;3.63;;;13.50;99.90;;;;;;4979273;28;20054;-86
2022/05/21 05:02:32;;;;;;;15.55;4.40;;;13.50;99.90;;;;;;4980408;28;20049;-91
2022/05/21 05:04:58;;;;;;;17.98;4.28;;;13.50;99.90;;;;;;4960153;28;20463;-83
2022/05/21 05:07:24;;;;;;;13.95;3.13;;;13.40;99.90;;;;;;4977604;28;20054;-83
2022/05/21 05:09:51;;;;;;;12.15;3.05;;;13.40;99.90;;;;;;4978206;28;20542;-92
2022/05/21 05:12:17;;;;;;;18.55;3.88;;;13.40;99.90;;;;;;4979088;28;20050;-93
2022/05/21 05:14:43;;;;;;;18.27;4.32;;;13.40;99.90;;;;;;4962168;28;20094;-91
2022/05/21 05:17:13;;;;;;;11.57;3.67;;;13.40;99.90;;;;;;4964275;28;20050;-85
2022/05/21 05:19:39;;;;;;;15.85;3.63;;;13.40;99.90;;;;;;4968459;28;20054;-87
2022/05/21 05:22:09;;;;;;;21.73;4.10;;;13.40;99.90;;;;;;4981173;28;20499;-84
2022/05/21 05:24:38;;;;;;;17.38;4.47;;;13.40;99.90;;;;;;4978882;28;20058;-92
2022/05/21 05:27:05;;;;;;;14.57;5.13;;;13.50;99.90;;;;;;4960221;28;20050;-93
2022/05/21 05:29:31;;;;;;;21.75;4.65;;;13.50;99.90;;;;;;4958672;28;20058;-91
2022/05/21 05:31:57;;;;;;;25.83;4.50;;;13.50;99.90;;;;;;4963055;28;20050;-84
2022/05/21 05:34:23;;;;;;;15.02;3.20;;;13.50;99.90;;;;;;4966280;28;20046;-88
2022/05/21 05:36:49;;;;;;;13.88;3.13;;;13.50;99.90;;;;;;4960605;28;20499;-82
2022/05/21 05:39:16;;;;;;;13.65;3.35;;;13.50;99.90;;;;;;4964289;28;20073;-86
2022/05/21 05:41:42;;;;;;;22.25;3.72;;;13.50;99.90;;;;;;4949041;28;20090;-89
2022/05/21 05:44:08;;;;;;;18.52;3.30;;;13.60;99.90;;;;;;4979669;28;20511;-83
2022/05/21 05:46:34;;;;;;;17.40;3.47;;;13.60;99.90;;;;;;4962907;28;20055;-83
2022/05/21 05:49:00;;;;;;;14.73;3.50;;;13.60;99.90;;;;;;4986615;28;20061;-83
2022/05/21 05:51:27;;;;;;;18.40;3.40;;;13.60;99.90;;;;;;4970114;28;20047;-82
2022/05/21 05:53:53;;;;;;;14.82;3.50;;;13.60;99.90;;;;;;4983580;28;20059;-83
2022/05/21 05:56:19;;;;;;;18.65;4.05;;;13.70;99.90;;;;;;4959955;28;20122;-85
2022/05/21 06:01:31;;;;;;;19.83;4.05;;;13.70;99.90;;;;;;4964904;28;20074;-81
2022/05/21 06:03:57;;;;;;;17.65;4.45;;;13.70;99.90;;;;;;4978066;28;20051;-82
2022/05/21 06:06:23;;;;;;;18.05;3.67;;;13.80;99.90;;;;;;4977441;28;20051;-88
2022/05/21 06:08:50;;;;;;;18.00;4.20;;;13.80;99.90;;;;;;4978825;28;20047;-83
2022/05/21 06:11:17;;;;;;;23.27;4.63;;;13.90;99.90;;;;;;4958417;28;20174;-82
2022/05/21 06:13:44;;;;;;;18.38;3.45;;;13.90;99.90;;;;;;4961325;28;20043;-82
2022/05/21 06:16:10;;;;;;;17.25;3.53;;;14.00;99.90;;;;;;4961590;28;20055;-84
2022/05/21 06:18:36;;;;;;;19.38;3.75;;;14.00;99.90;;;;;;4957972;28;20062;-83
2022/05/21 06:21:05;;;;;;;19.02;3.50;;;14.00;99.90;;;;;;4982648;28;20384;-82
2022/05/21 06:23:32;;;;;;;19.38;4.95;;;14.10;99.90;;;;;;4962515;28;20058;-82
2022/05/21 06:25:59;;;;;;;12.70;3.40;;;14.20;99.90;;;;;;4946434;28;20047;-86
2022/05/21 06:28:28;;;;;;;16.40;3.75;;;14.30;99.90;;;;;;4960377;28;20050;-87
2022/05/21 06:30:54;;;;;;;16.13;3.80;;;14.30;99.90;;;;;;4981913;28;20046;-85
2022/05/21 06:33:24;;;;;;;21.35;3.35;;;14.40;99.90;;;;;;4978972;28;20058;-86
2022/05/21 06:36:06;;;;;;;14.27;3.22;;;14.30;99.90;;;;;;4976852;28;20074;-85
2022/05/21 06:38:33;;;;;;;16.20;3.83;;;14.40;99.90;;;;;;4982267;28;20058;-83
2022/05/21 06:41:00;;;;;;;14.88;3.90;;;14.40;99.90;;;;;;4978597;28;20513;-83
2022/05/21 06:43:26;;;;;;;21.17;3.72;;;14.50;99.90;;;;;;4962935;28;20054;-87
2022/05/21 06:45:52;;;;;;;14.75;3.40;;;14.50;99.90;;;;;;4959311;28;20415;-85
2022/05/21 06:48:18;;;;;;;19.60;4.82;;;14.60;99.90;;;;;;4976453;28;20109;-88
2022/05/21 06:50:46;;;;;;;18.77;3.78;;;14.70;99.90;;;;;;4948188;28;20534;-85
2022/05/21 06:53:11;;;;;;;20.00;3.70;;;14.70;99.90;;;;;;4970236;28;20109;-84
2022/05/21 06:55:39;;;;;;;13.05;3.83;;;14.80;99.90;;;;;;4966499;28;20164;-87
2022/05/21 06:58:05;;;;;;;17.17;3.63;;;15.00;99.90;;;;;;4974212;28;20478;-83
2022/05/21 07:00:31;;;;;;;19.52;4.18;;;15.10;99.90;;;;;;4957876;28;20063;-83
2022/05/21 07:02:57;;;;;;;17.02;3.08;;;15.20;99.90;;;;;;4982267;28;20578;-83
2022/05/21 07:08:16;;;;;;;15.88;3.35;;;15.40;99.90;;;;;;4964482;28;20093;-82
2022/05/21 07:10:42;;;;;;;19.15;3.13;;;15.40;99.90;;;;;;4947397;28;20054;-81
2022/05/21 07:13:08;;;;;;;19.00;4.18;;;15.50;99.90;;;;;;4979875;28;20068;-83
2022/05/21 07:15:34;;;;;;;19.25;4.00;;;15.40;99.90;;;;;;4978324;28;20138;-83
2022/05/21 07:18:01;;;;;;;22.67;4.78;;;15.50;99.90;;;;;;4979650;28;20050;-81
2022/05/21 07:20:28;;;;;;;21.67;4.45;;;15.70;99.90;;;;;;4976699;28;20137;-84
2022/05/21 07:22:54;;;;;;;18.90;4.40;;;15.60;99.90;;;;;;4957800;28;20055;-85
2022/05/21 07:25:23;;;;;;;17.35;4.15;;;15.60;99.90;;;;;;4957588;28;20054;-83
2022/05/21 07:27:50;;;;;;;23.48;3.50;;;15.70;99.90;;;;;;4955978;28;20051;-82
2022/05/21 07:30:17;;;;;;;18.25;4.07;;;15.70;99.90;;;;;;4973794;28;20042;-83
2022/05/21 07:32:44;;;;;;;16.70;2.88;;;15.80;99.90;;;;;;4942125;28;20043;-88
2022/05/21 07:35:15;;;;;;;13.82;3.20;;;15.90;99.90;;;;;;4975530;28;20069;-85
2022/05/21 07:37:41;;;;;;;14.00;3.13;;;16.00;99.90;;;;;;4978615;28;20050;-85
2022/05/21 07:40:09;;;;;;;10.80;2.78;;;15.90;99.90;;;;;;4980056;28;20082;-87
2022/05/21 07:42:36;;;;;;;22.40;3.67;;;15.90;99.90;;;;;;4973797;28;20137;-86
2022/05/21 07:45:04;;;;;;;14.07;2.78;;;15.90;99.90;;;;;;4974038;28;20515;-85
2022/05/21 07:47:29;;;;;;;16.85;3.95;;;16.10;99.90;;;;;;4959428;28;20122;-89
2022/05/21 07:49:58;;;;;;;11.38;3.35;;;16.20;99.90;;;;;;4956572;28;20055;-86
2022/05/21 07:52:26;;;;;;;12.60;2.78;;;16.00;99.90;;;;;;4972604;28;20465;-84
2022/05/21 07:54:53;;;;;;;14.45;3.10;;;16.10;99.90;;;;;;4974235;28;20051;-85
2022/05/21 07:57:20;;;;;;;14.85;2.88;;;16.30;99.90;;;;;;4978828;28;20109;-87
2022/05/21 07:59:45;;;;;;;14.23;3.22;;;16.40;99.90;;;;;;4982132;28;20066;-86
2022/05/21 08:02:14;;;;;;;15.32;3.05;;;16.30;99.90;;;;;;4974600;28;20059;-82
2022/05/21 08:04:44;;;;;;;17.50;4.07;;;16.30;99.90;;;;;;4975123;28;20061;-82
2022/05/21 08:07:11;;;;;;;20.65;3.95;;;16.40;99.90;;;;;;4957587;28;20404;-84
2022/05/21 08:09:37;;;;;;;16.27;3.22;;;16.50;99.90;;;;;;4975004;28;20057;-83
2022/05/21 08:12:04;;;;;;;13.05;2.85;;;16.60;99.90;;;;;;4979391;28;20483;-83
2022/05/21 08:14:31;;;;;;;16.35;3.75;;;16.60;99.90;;;;;;4975603;28;20050;-87
2022/05/21 08:16:57;;;;;;;13.77;3.53;;;16.30;99.90;;;;;;4958404;28;20590;-92
2022/05/21 08:19:27;;;;;;;14.32;3.03;;;16.30;99.90;;;;;;4960064;28;20102;-83
2022/05/21 08:21:53;;;;;;;12.75;3.45;;;16.10;99.90;;;;;;4956052;28;20082;-84
2022/05/21 08:27:04;;;;;;;14.77;3.33;;;16.40;99.90;;;;;;4975979;28;20055;-86
2022/05/21 08:29:35;;;;;;;17.77;3.42;;;16.70;99.90;;;;;;4960475;28;20051;-85
2022/05/21 08:32:04;;;;;;;22.83;3.35;;;16.90;99.90;;;;;;4961212;28;20063;-88
2022/05/21 08:34:30;;;;;;;18.45;3.25;;;17.00;99.90;;;;;;4944990;28;20550;-90
2022/05/21 08:36:57;;;;;;;17.63;3.63;;;16.80;99.90;;;;;;4960595;28;20059;-92
2022/05/21 08:39:23;;;;;;;12.63;3.60;;;17.00;99.90;;;;;;4962761;28;20073;-93
2022/05/21 08:41:53;;;;;;;10.40;2.88;;;17.10;99.90;;;;;;4947226;28;20047;-90
2022/05/21 08:44:33;;;;;;;14.70;3.17;;;17.00;99.90;;;;;;4984059;28;20553;-92
2022/05/21 08:47:07;;;;;;;14.25;2.47;;;17.10;99.90;;;;;;4961844;28;20050;-84
2022/05/21 08:49:37;;;;;;;14.73;2.78;;;17.20;99.90;;;;;;4963152;28;20911;-89
2022/05/21 08:52:22;;;;;;;15.95;2.95;;;17.30;99.90;;;;;;4962577;28;20038;-88
2022/05/21 08:54:52;;;;;;;17.60;3.22;;;17.40;99.90;;;;;;4970499;28;20046;-95
2022/05/21 08:57:39;;;;;;;18.83;4.65;;;17.40;99.90;;;;;;4960750;28;20061;-85
2022/05/21 09:00:12;;;;;;;19.15;4.03;;;17.60;99.90;;;;;;4976454;28;20570;-87
2022/05/21 09:02:38;;;;;;;12.93;3.67;;;17.90;99.90;;;;;;4977153;28;20138;-85
2022/05/21 09:05:09;;;;;;;19.15;3.40;;;17.80;99.90;;;;;;4981222;28;20094;-87
2022/05/21 09:07:50;;;;;;;15.25;3.35;;;17.90;99.90;;;;;;4977107;28;20125;-86
2022/05/21 09:10:51;;;;;;;14.00;3.53;;;18.10;99.90;;;;;;4977772;28;20054;-84
2022/05/21 09:13:41;;;;;;;16.92;2.65;;;18.00;99.90;;;;;;4943607;28;20086;-86
2022/05/21 09:18:57;;;;;;;17.42;4.10;;;18.20;99.90;;;;;;4961150;28;20050;-83
2022/05/21 09:21:26;;;;;;;19.23;3.97;;;18.00;99.90;;;;;;4976716;28;20057;-85
2022/05/21 09:23:57;;;;;;;13.38;4.80;;;18.20;99.90;;;;;;4980801;28;20578;-85
2022/05/21 09:26:30;;;;;;;15.98;3.67;;;18.30;99.90;;;;;;4971549;28;20078;-85
2022/05/21 09:29:18;;;;;;;18.73;4.43;;;18.40;99.90;;;;;;4972198;28;20447;-88
2022/05/21 09:31:44;;;;;;;15.85;3.80;;;18.60;99.90;;;;;;4975023;28;20062;-85
2022/05/21 09:34:31;;;;;;;18.85;3.75;;;18.60;99.90;;;;;;4946717;28;20058;-88
2022/05/21 09:36:59;;;;;;;14.82;3.80;;;18.70;99.90;;;;;;4977626;28;20061;-86
2022/05/21 09:39:39;;;;;;;12.55;3.17;;;18.80;99.90;;;;;;4959802;28;20050;-91
2022/05/21 09:45:24;;;;;;;13.55;3.20;;;18.70;99.90;;;;;;4962080;28;20145;-87
2022/05/21 09:48:17;;;;;;;12.52;3.33;;;18.40;99.90;;;;;;4963557;28;20150;-85
2022/05/21 09:50:59;;;;;;;12.38;3.58;;;18.20;99.90;;;;;;4985221;28;20113;-84
2022/05/21 09:53:39;;;;;;;13.95;3.60;;;18.00;99.90;;;;;;4971258;28;20117;-89
2022/05/21 09:56:18;;;;;;;14.40;3.25;;;17.90;99.90;;;;;;4984548;28;20541;-88
2022/05/21 09:58:46;;;;;;;15.85;2.95;;;17.70;99.90;;;;;;4950984;29;20047;-87
2022/05/21 10:01:33;;;;;;;11.30;2.83;;;17.60;99.90;;;;;;4947905;29;20055;-91
2022/05/21 10:04:30;;;;;;;20.42;3.35;;;17.60;99.90;;;;;;4963964;29;20088;-87
2022/05/21 10:10:58;;;;;;;22.07;3.87;;;17.60;99.90;;;;;;4929316;29;20047;-85
2022/05/21 10:12:54;;;;;;;16.33;4.25;;;18.00;99.90;;;;;;4959254;29;20409;-86
2022/05/21 10:15:26;;;;;;;16.83;3.72;;;18.10;99.90;;;;;;4958894;29;20484;-88
2022/05/21 10:18:19;;;;;;;13.35;3.55;;;18.40;99.90;;;;;;4925902;29;20061;-87
2022/05/21 10:20:51;;;;;;;15.65;3.78;;;18.80;99.90;;;;;;4940528;29;20059;-84
2022/05/21 10:23:38;;;;;;;16.52;4.03;;;18.90;99.90;;;;;;4941311;29;20051;-87
2022/05/21 10:26:23;;;;;;;14.45;2.92;;;19.10;99.90;;;;;;4940064;29;20055;-87
2022/05/21 10:29:20;;;;;;;14.80;2.63;;;19.40;99.90;;;;;;4955573;29;20051;-87
2022/05/21 10:32:19;;;;;;;14.23;3.17;;;19.00;99.90;;;;;;4924284;29;20058;-85
2022/05/21 10:35:09;;;;;;;10.10;3.38;;;19.00;99.90;;;;;;4957962;29;20054;-88
2022/05/21 10:37:45;;;;;;;13.50;3.17;;;19.10;99.90;;;;;;4961467;29;20066;-89
2022/05/21 10:40:14;;;;;;;11.48;2.70;;;18.80;99.90;;;;;;4958025;29;20059;-88
2022/05/21 10:42:53;;;;;;;17.88;3.08;;;18.70;99.90;;;;;;4961101;29;20059;-86
2022/05/21 10:45:31;;;;;;;12.65;3.00;;;18.70;99.90;;;;;;4958955;29;20142;-92
2022/05/21 10:48:35;;;;;;;13.82;2.85;;;18.70;99.90;;;;;;4938913;29;20055;-87
2022/05/21 10:51:13;;;;;;;9.52;2.88;;;18.90;99.90;;;;;;4883033;29;20101;-86
2022/05/21 10:53:48;;;;;;;17.15;3.10;;;19.20;99.90;;;;;;4941068;29;20051;-88
2022/05/21 10:56:25;;;;;;;11.60;2.17;;;19.20;99.90;;;;;;4955099;28;20043;-89
2022/05/21 10:59:05;;;;;;;10.85;2.53;;;19.60;99.90;;;;;;4937741;28;20512;-88
2022/05/21 11:01:40;;;;;;;18.95;3.17;;;19.30;99.90;;;;;;4955189;29;20183;-87
2022/05/21 11:04:24;;;;;;;15.80;3.20;;;19.60;99.90;;;;;;4953385;29;20114;-88
2022/05/21 11:07:08;;;;;;;15.32;3.47;;;19.30;99.90;;;;;;4937536;29;20051;-85
2022/05/21 11:09:40;;;;;;;14.52;2.83;;;19.40;99.90;;;;;;4940940;29;20503;-90
2022/05/21 11:12:15;;;;;;;12.25;2.65;;;19.70;99.90;;;;;;4951234;29;20653;-87
2022/05/21 11:14:55;;;;;;;20.38;5.18;;;19.70;99.90;;;;;;4960758;29;20138;-90
2022/05/21 11:17:28;;;;;;;12.55;3.13;;;19.60;99.90;;;;;;4956936;29;20069;-87
2022/05/21 11:20:05;;;;;;;11.93;2.92;;;19.60;99.90;;;;;;4941322;29;20044;-87
2022/05/21 11:22:46;;;;;;;16.33;3.92;;;19.60;99.90;;;;;;4937614;29;20073;-87
2022/05/21 11:25:23;;;;;;;18.80;3.03;;;19.60;99.90;;;;;;4959783;29;20063;-89
2022/05/21 11:28:04;;;;;;;11.52;2.60;;;19.60;99.90;;;;;;4933684;29;20059;-87
2022/05/21 11:30:30;;;;;;;17.70;4.28;;;19.60;99.90;;;;;;4945036;29;20075;-86
2022/05/21 11:38:46;;;;;;;10.00;2.47;;;20.40;99.90;;;;;;4946754;29;20083;-88
2022/05/21 11:41:29;;;;;;;10.98;2.60;;;20.10;99.90;;;;;;4943422;29;20055;-87
2022/05/21 11:47:13;;;;;;;12.45;2.47;;;19.70;99.90;;;;;;4881049;29;20592;-88
2022/05/21 11:49:43;;;;;;;14.90;2.63;;;20.00;99.90;;;;;;4931420;29;20043;-90
2022/05/21 11:52:28;;;;;;;11.07;2.30;;;19.90;99.90;;;;;;4941183;29;20047;-88
2022/05/21 11:54:53;;;;;;;11.80;2.35;;;19.60;99.90;;;;;;4941670;28;20451;-88
2022/05/21 11:57:45;;;;;;;12.00;2.45;;;19.10;99.90;;;;;;4936641;28;20055;-88
2022/05/21 12:00:14;;;;;;;13.25;3.35;;;19.30;99.90;;;;;;4938015;28;20051;-87
2022/05/21 12:02:56;;;;;;;14.27;3.13;;;19.20;99.90;;;;;;4941213;29;20047;-88
2022/05/21 12:05:45;;;;;;;13.43;2.47;;;19.10;99.90;;;;;;4940756;29;20133;-89
2022/05/21 12:08:32;;;;;;;17.73;3.03;;;19.20;99.90;;;;;;4907299;29;20055;-87
2022/05/21 12:11:09;;;;;;;13.35;3.85;;;19.80;99.90;;;;;;4954050;29;20066;-87
2022/05/21 12:13:34;;;;;;;14.55;2.45;;;20.40;99.90;;;;;;4956448;29;20064;-89
2022/05/21 12:16:01;;;;;;;11.18;3.00;;;20.60;99.90;;;;;;4953547;29;20055;-88
2022/05/21 12:18:33;;;;;;;12.82;3.08;;;20.30;99.50;;;;;;4940501;29;20043;-88
2022/05/21 12:21:00;;;;;;;15.70;3.50;;;19.80;99.70;;;;;;4939779;29;20066;-88
2022/05/21 12:23:32;;;;;;;16.83;3.35;;;19.60;99.90;;;;;;4942076;29;20051;-87
2022/05/21 12:26:06;;;;;;;10.43;2.65;;;19.50;99.90;;;;;;4953822;29;20043;-91
2022/05/21 12:28:42;;;;;;;11.98;2.75;;;19.40;99.90;;;;;;4938786;29;20586;-86
2022/05/21 12:31:18;;;;;;;16.08;2.85;;;19.40;99.90;;;;;;4921501;29;20047;-92
2022/05/21 12:33:49;;;;;;;11.05;2.72;;;19.60;99.90;;;;;;4936538;29;20134;-90
2022/05/21 12:36:32;;;;;;;11.80;2.60;;;20.20;99.90;;;;;;4938437;29;20055;-89
2022/05/21 12:39:03;;;;;;;9.50;2.40;;;20.30;99.80;;;;;;4944271;29;20054;-89
2022/05/21 12:41:40;;;;;;;11.18;2.65;;;20.40;99.90;;;;;;4946092;29;20049;-87
2022/05/21 12:44:06;;;;;;;13.93;2.80;;;20.40;99.90;;;;;;4944891;29;20133;-89
2022/05/21 12:46:35;;;;;;;20.52;3.83;;;20.20;99.90;;;;;;4927849;29;20047;-87
2022/05/21 12:49:10;;;;;;;10.68;2.70;;;20.20;99.90;;;;;;4956447;29;20111;-88
2022/05/21 12:51:43;;;;;;;;;;;20.00;99.50;;;;;;4906619;29;20135;-86
2022/05/21 12:54:19;;;;;;;13.35;3.45;;;19.60;99.70;;;;;;4953439;29;19973;-86
2022/05/21 12:56:45;;;;;;;13.65;3.00;;;19.60;99.90;;;;;;4954993;28;20504;-88
2022/05/21 12:59:19;;;;;;;16.42;3.22;;;19.70;99.90;;;;;;4954792;28;20058;-86
2022/05/21 13:02:11;;;;;;;15.85;2.80;;;19.90;99.90;;;;;;4974691;28;20097;-86
2022/05/21 13:04:42;;;;;;;13.35;2.60;;;20.00;99.90;;;;;;4940564;28;20097;-92
2022/05/21 13:07:29;;;;;;;12.95;2.80;;;19.90;99.90;;;;;;4973359;28;20047;-86
2022/05/21 13:10:03;;;;;;;12.40;2.65;;;20.50;99.80;;;;;;4959610;28;20061;-90
2022/05/21 13:12:37;;;;;;;12.85;2.22;;;20.60;99.90;;;;;;4949972;28;20111;-87
2022/05/21 13:15:03;;;;;;;11.88;1.98;;;20.70;99.40;;;;;;4970431;28;20062;-88
2022/05/21 13:17:42;;;;;;;15.85;2.92;;;20.80;98.10;;;;;;4985316;28;20106;-86
2022/05/21 13:23:55;;;;;;;11.93;2.53;;;21.40;97.60;;;;;;4977125;28;20085;-90
2022/05/21 13:26:22;;;;;;;22.65;3.45;;;21.70;96.50;;;;;;4959382;28;20058;-87
2022/05/21 13:28:49;;;;;;;11.57;2.58;;;22.20;97.20;;;;;;4960612;28;20050;-89
2022/05/21 13:31:16;;;;;;;7.30;1.85;;;22.30;96.50;;;;;;4965953;28;20061;-87
2022/05/21 13:33:51;;;;;;;10.25;2.35;;;22.40;96.30;;;;;;4978017;28;20112;-88
2022/05/21 13:36:22;;;;;;;10.00;2.10;;;22.60;95.30;;;;;;4958874;28;20399;-90